PTAO2: Poteau River, Poteau, OK

                                SHEF ID:       PTAO2     Poteau River at Poteau, OK
STATION TYPE:
Regulating: Stage = 20.00, Flow = 7395

PRECIP STAGE RIV-FLOW VOLTAGE BAT-LOAD
in ft cfs volt volt
Ccp-Rev Ccp-Rev Ccp-Rev Ccp-Rev Ccp-Rev
(America/Chicago)
07/02 00:00 0.00 17.30 5853 12.83 12.24
07/02 01:00 0.00 17.30 5853 12.82 12.24
07/02 02:00 0.00 17.32 5861 12.82 12.28
07/02 03:00 0.00 17.31 5857 12.80 12.21
07/02 04:00 0.00 17.29 5849 12.80 12.21
07/02 05:00 0.00 17.28 5845 12.78 12.19
07/02 06:00 0.00 17.28 5845 12.78 12.21
07/02 07:00 0.00 17.27 5841 12.90 12.24
07/02 08:00 0.00 17.27 5841 13.75 12.77
07/02 09:00 0.00 17.25 5833 13.92 12.90
07/02 10:00 0.00 17.23 5824 13.37 12.86
07/02 11:00 0.00 17.22 5820 13.24 12.62
07/02 12:00 0.00 17.24 5829 13.19 12.62
07/02 13:00 0.00 17.22 5820 13.16 12.51
07/02 14:00 0.00 17.19 5808 13.09 12.49
07/02 15:00 0.00 17.18 5804 13.10 12.44
07/02 16:00 0.00 17.18 5804 13.06 12.44
07/02 17:00 0.00 17.18 5804 13.09 12.40
07/02 18:00 0.00 17.15 5792 13.18 12.46
07/02 19:00 0.00 17.15 5792 13.25 12.50
07/02 20:00 0.00 17.14 5788 13.23 12.50
07/02 21:00 0.00 17.15 5792 12.97 12.37
07/02 22:00 0.00 17.13 5784 12.92 12.30
07/02 23:00 0.00 17.13 5784 12.90 12.32
Data processed at Thu 03Jul2025 04:48 GMT

Parsing this webpage?

Checkout our new Data API! CWMSDataAPI (CDA)

Timeseries IDs (TSIDs)

TSIDs used from left to right in the data table
POTE.Precip-Inc.Total.1Hour.1Hour.Ccp-Rev
POTE.Stage.Inst.1Hour.0.Ccp-Rev
POTE.Flow.Inst.1Hour.0.Ccp-Rev
POTE.Volt-Battery.Inst.1Hour.0.Ccp-Rev
POTE.Volt-Battery Load.Inst.1Hour.0.Ccp-Rev

                            

All information presented herein is the property of the government of the United States of America and may be revised or deleted at any time without prior notice. Dissemination of this information without the expressed written consent of the Public Affairs Office, Tulsa District U.S. Army Corps of Engineers is strictly prohibited. These data are gathered electronically and, as presented, have NOT undergone any form of quality control. These data are NOT guaranteed to be valid or correct.